sensor_id;sensor_type;location;lat;lon;timestamp;P1;durP1;ratioP1;P2;durP2;ratioP2
15299;SDS011;7751;49.954;8.644;2022-09-25T00:00:17;1.08;;;1.08;;
15299;SDS011;7751;49.954;8.644;2022-09-25T00:02:43;2.60;;;2.40;;
15299;SDS011;7751;49.954;8.644;2022-09-25T00:05:09;1.60;;;1.50;;
15299;SDS011;7751;49.954;8.644;2022-09-25T00:07:35;1.35;;;1.30;;
15299;SDS011;7751;49.954;8.644;2022-09-25T00:10:01;1.63;;;1.63;;
15299;SDS011;7751;49.954;8.644;2022-09-25T00:12:27;1.75;;;1.75;;
15299;SDS011;7751;49.954;8.644;2022-09-25T00:14:53;1.65;;;1.55;;
15299;SDS011;7751;49.954;8.644;2022-09-25T00:17:19;1.20;;;1.10;;
15299;SDS011;7751;49.954;8.644;2022-09-25T00:19:45;1.20;;;1.20;;
15299;SDS011;7751;49.954;8.644;2022-09-25T00:22:22;1.52;;;1.52;;
15299;SDS011;7751;49.954;8.644;2022-09-25T00:24:49;1.92;;;1.92;;
15299;SDS011;7751;49.954;8.644;2022-09-25T00:27:15;2.58;;;2.42;;
15299;SDS011;7751;49.954;8.644;2022-09-25T00:29:42;1.45;;;1.38;;
15299;SDS011;7751;49.954;8.644;2022-09-25T00:32:09;1.33;;;1.33;;
15299;SDS011;7751;49.954;8.644;2022-09-25T00:34:36;1.58;;;1.55;;
15299;SDS011;7751;49.954;8.644;2022-09-25T00:37:02;1.70;;;1.60;;
15299;SDS011;7751;49.954;8.644;2022-09-25T00:39:29;1.83;;;1.27;;
15299;SDS011;7751;49.954;8.644;2022-09-25T00:41:55;1.75;;;1.35;;
15299;SDS011;7751;49.954;8.644;2022-09-25T00:47:05;0.93;;;0.90;;
15299;SDS011;7751;49.954;8.644;2022-09-25T00:49:32;2.35;;;2.28;;
15299;SDS011;7751;49.954;8.644;2022-09-25T00:52:00;2.45;;;2.35;;
15299;SDS011;7751;49.954;8.644;2022-09-25T00:54:30;2.45;;;2.22;;
15299;SDS011;7751;49.954;8.644;2022-09-25T00:56:58;1.27;;;1.27;;
15299;SDS011;7751;49.954;8.644;2022-09-25T00:59:26;1.40;;;1.40;;
15299;SDS011;7751;49.954;8.644;2022-09-25T01:01:54;1.13;;;1.13;;
15299;SDS011;7751;49.954;8.644;2022-09-25T01:04:20;1.38;;;1.27;;
15299;SDS011;7751;49.954;8.644;2022-09-25T01:06:47;1.40;;;1.40;;
15299;SDS011;7751;49.954;8.644;2022-09-25T01:09:13;5.20;;;2.10;;
15299;SDS011;7751;49.954;8.644;2022-09-25T01:11:39;1.15;;;1.15;;
15299;SDS011;7751;49.954;8.644;2022-09-25T01:14:05;0.90;;;0.90;;
15299;SDS011;7751;49.954;8.644;2022-09-25T01:16:37;0.70;;;0.70;;
15299;SDS011;7751;49.954;8.644;2022-09-25T01:21:38;0.75;;;0.75;;
15299;SDS011;7751;49.954;8.644;2022-09-25T01:29:17;1.10;;;1.10;;
15299;SDS011;7751;49.954;8.644;2022-09-25T01:31:52;3.60;;;3.30;;
15299;SDS011;7751;49.954;8.644;2022-09-25T01:37:02;3.80;;;2.25;;
15299;SDS011;7751;49.954;8.644;2022-09-25T01:39:34;1.00;;;1.00;;
15299;SDS011;7751;49.954;8.644;2022-09-25T01:42:04;2.00;;;1.90;;
15299;SDS011;7751;49.954;8.644;2022-09-25T01:44:34;0.75;;;0.75;;
15299;SDS011;7751;49.954;8.644;2022-09-25T01:47:04;1.58;;;1.58;;
15299;SDS011;7751;49.954;8.644;2022-09-25T01:49:34;1.17;;;1.17;;
15299;SDS011;7751;49.954;8.644;2022-09-25T01:52:01;2.50;;;1.45;;
15299;SDS011;7751;49.954;8.644;2022-09-25T01:54:31;1.13;;;1.13;;
15299;SDS011;7751;49.954;8.644;2022-09-25T01:57:08;1.58;;;1.48;;
15299;SDS011;7751;49.954;8.644;2022-09-25T02:02:13;1.55;;;1.55;;
15299;SDS011;7751;49.954;8.644;2022-09-25T02:07:18;1.35;;;1.35;;
15299;SDS011;7751;49.954;8.644;2022-09-25T02:09:51;3.10;;;3.00;;
15299;SDS011;7751;49.954;8.644;2022-09-25T02:12:24;1.38;;;1.38;;
15299;SDS011;7751;49.954;8.644;2022-09-25T02:14:59;1.88;;;1.77;;
15299;SDS011;7751;49.954;8.644;2022-09-25T02:17:50;1.73;;;1.73;;
15299;SDS011;7751;49.954;8.644;2022-09-25T02:20:31;1.67;;;1.58;;
15299;SDS011;7751;49.954;8.644;2022-09-25T02:25:42;0.98;;;0.98;;
15299;SDS011;7751;49.954;8.644;2022-09-25T02:28:09;2.25;;;2.15;;
15299;SDS011;7751;49.954;8.644;2022-09-25T02:30:35;1.52;;;1.42;;
15299;SDS011;7751;49.954;8.644;2022-09-25T02:33:01;2.60;;;2.50;;
15299;SDS011;7751;49.954;8.644;2022-09-25T02:35:27;2.00;;;2.00;;
15299;SDS011;7751;49.954;8.644;2022-09-25T02:37:53;2.33;;;2.22;;
15299;SDS011;7751;49.954;8.644;2022-09-25T02:40:22;1.65;;;1.65;;
15299;SDS011;7751;49.954;8.644;2022-09-25T02:42:58;3.03;;;2.08;;
15299;SDS011;7751;49.954;8.644;2022-09-25T02:45:39;2.72;;;2.53;;
15299;SDS011;7751;49.954;8.644;2022-09-25T02:48:16;0.85;;;0.85;;
15299;SDS011;7751;49.954;8.644;2022-09-25T02:50:53;3.15;;;3.05;;
15299;SDS011;7751;49.954;8.644;2022-09-25T02:53:27;2.13;;;2.03;;
15299;SDS011;7751;49.954;8.644;2022-09-25T02:56:04;1.95;;;1.85;;
15299;SDS011;7751;49.954;8.644;2022-09-25T02:58:32;1.83;;;1.60;;
15299;SDS011;7751;49.954;8.644;2022-09-25T03:00:59;2.00;;;1.98;;
15299;SDS011;7751;49.954;8.644;2022-09-25T03:03:28;2.25;;;2.15;;
15299;SDS011;7751;49.954;8.644;2022-09-25T03:05:56;3.50;;;1.92;;
15299;SDS011;7751;49.954;8.644;2022-09-25T03:08:22;2.45;;;2.38;;
15299;SDS011;7751;49.954;8.644;2022-09-25T03:11:15;2.20;;;2.10;;
15299;SDS011;7751;49.954;8.644;2022-09-25T03:13:42;2.28;;;2.17;;
15299;SDS011;7751;49.954;8.644;2022-09-25T03:16:13;2.92;;;2.83;;
15299;SDS011;7751;49.954;8.644;2022-09-25T03:18:42;2.88;;;2.78;;
15299;SDS011;7751;49.954;8.644;2022-09-25T03:21:09;2.47;;;2.38;;
15299;SDS011;7751;49.954;8.644;2022-09-25T03:23:35;2.63;;;2.42;;
15299;SDS011;7751;49.954;8.644;2022-09-25T03:26:01;5.75;;;4.47;;
15299;SDS011;7751;49.954;8.644;2022-09-25T03:28:28;3.15;;;2.95;;
15299;SDS011;7751;49.954;8.644;2022-09-25T03:30:55;4.20;;;3.92;;
15299;SDS011;7751;49.954;8.644;2022-09-25T03:33:22;2.97;;;2.88;;
15299;SDS011;7751;49.954;8.644;2022-09-25T03:35:48;3.25;;;3.10;;
15299;SDS011;7751;49.954;8.644;2022-09-25T03:38:24;7.47;;;4.68;;
15299;SDS011;7751;49.954;8.644;2022-09-25T03:40:50;2.50;;;2.40;;
15299;SDS011;7751;49.954;8.644;2022-09-25T03:43:16;3.33;;;3.22;;
15299;SDS011;7751;49.954;8.644;2022-09-25T03:45:42;7.53;;;3.60;;
15299;SDS011;7751;49.954;8.644;2022-09-25T03:48:08;4.63;;;3.63;;
15299;SDS011;7751;49.954;8.644;2022-09-25T03:50:34;2.60;;;2.50;;
15299;SDS011;7751;49.954;8.644;2022-09-25T03:53:00;3.75;;;3.53;;
15299;SDS011;7751;49.954;8.644;2022-09-25T03:55:26;1.88;;;1.77;;
15299;SDS011;7751;49.954;8.644;2022-09-25T03:57:51;6.35;;;3.22;;
15299;SDS011;7751;49.954;8.644;2022-09-25T04:00:17;1.98;;;1.90;;
15299;SDS011;7751;49.954;8.644;2022-09-25T04:02:43;2.55;;;2.42;;
15299;SDS011;7751;49.954;8.644;2022-09-25T04:05:09;2.47;;;2.40;;
15299;SDS011;7751;49.954;8.644;2022-09-25T04:07:36;2.50;;;2.40;;
15299;SDS011;7751;49.954;8.644;2022-09-25T04:10:02;2.47;;;2.38;;
15299;SDS011;7751;49.954;8.644;2022-09-25T04:12:28;3.42;;;3.33;;
15299;SDS011;7751;49.954;8.644;2022-09-25T04:14:54;5.35;;;4.93;;
15299;SDS011;7751;49.954;8.644;2022-09-25T04:17:20;2.75;;;2.55;;
15299;SDS011;7751;49.954;8.644;2022-09-25T04:19:46;2.10;;;1.95;;
15299;SDS011;7751;49.954;8.644;2022-09-25T04:22:13;3.33;;;3.20;;
15299;SDS011;7751;49.954;8.644;2022-09-25T04:24:39;2.50;;;2.40;;
15299;SDS011;7751;49.954;8.644;2022-09-25T04:27:18;3.90;;;3.67;;
15299;SDS011;7751;49.954;8.644;2022-09-25T04:29:44;2.80;;;2.70;;
15299;SDS011;7751;49.954;8.644;2022-09-25T04:32:11;2.88;;;2.78;;
15299;SDS011;7751;49.954;8.644;2022-09-25T04:34:56;2.97;;;2.75;;
15299;SDS011;7751;49.954;8.644;2022-09-25T04:37:22;4.22;;;3.22;;
15299;SDS011;7751;49.954;8.644;2022-09-25T04:39:51;4.88;;;4.50;;
15299;SDS011;7751;49.954;8.644;2022-09-25T04:42:17;2.42;;;2.25;;
15299;SDS011;7751;49.954;8.644;2022-09-25T04:44:44;3.38;;;3.17;;
15299;SDS011;7751;49.954;8.644;2022-09-25T04:47:11;2.17;;;2.08;;
15299;SDS011;7751;49.954;8.644;2022-09-25T04:49:37;3.30;;;2.95;;
15299;SDS011;7751;49.954;8.644;2022-09-25T04:52:03;2.30;;;2.15;;
15299;SDS011;7751;49.954;8.644;2022-09-25T04:54:30;2.17;;;2.17;;
15299;SDS011;7751;49.954;8.644;2022-09-25T04:56:56;3.05;;;2.95;;
15299;SDS011;7751;49.954;8.644;2022-09-25T04:59:22;4.47;;;4.18;;
15299;SDS011;7751;49.954;8.644;2022-09-25T05:01:48;3.15;;;2.95;;
15299;SDS011;7751;49.954;8.644;2022-09-25T05:04:14;3.58;;;2.30;;
15299;SDS011;7751;49.954;8.644;2022-09-25T05:06:40;2.83;;;2.67;;
15299;SDS011;7751;49.954;8.644;2022-09-25T05:09:06;2.70;;;2.60;;
15299;SDS011;7751;49.954;8.644;2022-09-25T05:11:32;3.22;;;3.13;;
15299;SDS011;7751;49.954;8.644;2022-09-25T05:13:58;2.35;;;2.25;;
15299;SDS011;7751;49.954;8.644;2022-09-25T05:16:25;1.30;;;1.30;;
15299;SDS011;7751;49.954;8.644;2022-09-25T05:18:52;2.65;;;2.55;;
15299;SDS011;7751;49.954;8.644;2022-09-25T05:21:18;3.92;;;3.80;;
15299;SDS011;7751;49.954;8.644;2022-09-25T05:23:44;1.90;;;1.80;;
15299;SDS011;7751;49.954;8.644;2022-09-25T05:26:10;2.83;;;2.63;;
15299;SDS011;7751;49.954;8.644;2022-09-25T05:28:37;1.58;;;1.58;;
15299;SDS011;7751;49.954;8.644;2022-09-25T05:31:03;3.08;;;2.78;;
15299;SDS011;7751;49.954;8.644;2022-09-25T05:33:33;3.40;;;3.17;;
15299;SDS011;7751;49.954;8.644;2022-09-25T05:36:00;3.22;;;3.03;;
15299;SDS011;7751;49.954;8.644;2022-09-25T05:38:26;2.83;;;2.72;;
15299;SDS011;7751;49.954;8.644;2022-09-25T05:40:53;3.97;;;3.50;;
15299;SDS011;7751;49.954;8.644;2022-09-25T05:43:20;1.67;;;1.67;;
15299;SDS011;7751;49.954;8.644;2022-09-25T05:45:53;3.63;;;3.38;;
15299;SDS011;7751;49.954;8.644;2022-09-25T05:48:19;5.25;;;4.30;;
15299;SDS011;7751;49.954;8.644;2022-09-25T05:50:49;2.38;;;2.28;;
15299;SDS011;7751;49.954;8.644;2022-09-25T05:53:16;2.53;;;2.42;;
15299;SDS011;7751;49.954;8.644;2022-09-25T05:55:47;3.53;;;3.22;;
15299;SDS011;7751;49.954;8.644;2022-09-25T05:58:13;4.88;;;2.47;;
15299;SDS011;7751;49.954;8.644;2022-09-25T06:00:39;5.35;;;3.45;;
15299;SDS011;7751;49.954;8.644;2022-09-25T06:03:06;2.42;;;2.33;;
15299;SDS011;7751;49.954;8.644;2022-09-25T06:05:32;2.92;;;2.72;;
15299;SDS011;7751;49.954;8.644;2022-09-25T06:07:58;2.90;;;2.72;;
15299;SDS011;7751;49.954;8.644;2022-09-25T06:10:25;3.88;;;3.72;;
15299;SDS011;7751;49.954;8.644;2022-09-25T06:12:51;2.35;;;2.25;;
15299;SDS011;7751;49.954;8.644;2022-09-25T06:15:20;1.27;;;1.27;;
15299;SDS011;7751;49.954;8.644;2022-09-25T06:17:48;3.25;;;2.97;;
15299;SDS011;7751;49.954;8.644;2022-09-25T06:20:14;2.75;;;2.65;;
15299;SDS011;7751;49.954;8.644;2022-09-25T06:22:40;2.35;;;2.33;;
15299;SDS011;7751;49.954;8.644;2022-09-25T06:25:07;1.60;;;1.60;;
15299;SDS011;7751;49.954;8.644;2022-09-25T06:27:34;2.75;;;2.65;;
15299;SDS011;7751;49.954;8.644;2022-09-25T06:30:01;2.03;;;1.92;;
15299;SDS011;7751;49.954;8.644;2022-09-25T06:32:27;2.40;;;2.30;;
15299;SDS011;7751;49.954;8.644;2022-09-25T06:34:53;3.67;;;3.47;;
15299;SDS011;7751;49.954;8.644;2022-09-25T06:37:19;3.60;;;3.00;;
15299;SDS011;7751;49.954;8.644;2022-09-25T06:39:45;1.73;;;1.67;;
15299;SDS011;7751;49.954;8.644;2022-09-25T06:42:11;3.20;;;2.92;;
15299;SDS011;7751;49.954;8.644;2022-09-25T06:44:37;3.05;;;2.92;;
15299;SDS011;7751;49.954;8.644;2022-09-25T06:47:03;2.53;;;2.42;;
15299;SDS011;7751;49.954;8.644;2022-09-25T06:49:29;2.75;;;2.65;;
15299;SDS011;7751;49.954;8.644;2022-09-25T06:51:56;2.45;;;2.25;;
15299;SDS011;7751;49.954;8.644;2022-09-25T06:54:22;2.30;;;2.17;;
15299;SDS011;7751;49.954;8.644;2022-09-25T06:56:48;1.52;;;1.52;;
15299;SDS011;7751;49.954;8.644;2022-09-25T06:59:15;3.53;;;3.42;;
15299;SDS011;7751;49.954;8.644;2022-09-25T07:01:40;1.13;;;1.13;;
15299;SDS011;7751;49.954;8.644;2022-09-25T07:04:07;2.72;;;2.63;;
15299;SDS011;7751;49.954;8.644;2022-09-25T07:06:33;3.75;;;3.55;;
15299;SDS011;7751;49.954;8.644;2022-09-25T07:09:01;2.85;;;2.75;;
15299;SDS011;7751;49.954;8.644;2022-09-25T07:11:27;2.45;;;2.22;;
15299;SDS011;7751;49.954;8.644;2022-09-25T07:13:55;2.97;;;2.78;;
15299;SDS011;7751;49.954;8.644;2022-09-25T07:16:22;2.53;;;2.33;;
15299;SDS011;7751;49.954;8.644;2022-09-25T07:18:48;2.70;;;2.53;;
15299;SDS011;7751;49.954;8.644;2022-09-25T07:21:16;2.17;;;2.17;;
15299;SDS011;7751;49.954;8.644;2022-09-25T07:23:43;2.58;;;2.47;;
15299;SDS011;7751;49.954;8.644;2022-09-25T07:26:10;2.85;;;2.70;;
15299;SDS011;7751;49.954;8.644;2022-09-25T07:28:38;3.53;;;3.33;;
15299;SDS011;7751;49.954;8.644;2022-09-25T07:31:11;1.88;;;1.77;;
15299;SDS011;7751;49.954;8.644;2022-09-25T07:33:37;2.67;;;2.58;;
15299;SDS011;7751;49.954;8.644;2022-09-25T07:36:03;2.13;;;2.03;;
15299;SDS011;7751;49.954;8.644;2022-09-25T07:38:29;1.67;;;1.67;;
15299;SDS011;7751;49.954;8.644;2022-09-25T07:40:55;2.38;;;2.28;;
15299;SDS011;7751;49.954;8.644;2022-09-25T07:43:21;4.50;;;3.03;;
15299;SDS011;7751;49.954;8.644;2022-09-25T07:45:48;3.22;;;2.60;;
15299;SDS011;7751;49.954;8.644;2022-09-25T07:48:18;1.95;;;1.90;;
15299;SDS011;7751;49.954;8.644;2022-09-25T07:50:45;2.97;;;2.85;;
15299;SDS011;7751;49.954;8.644;2022-09-25T07:53:14;3.25;;;2.95;;
15299;SDS011;7751;49.954;8.644;2022-09-25T07:55:40;2.15;;;2.05;;
15299;SDS011;7751;49.954;8.644;2022-09-25T07:58:06;2.92;;;2.83;;
15299;SDS011;7751;49.954;8.644;2022-09-25T08:00:32;2.85;;;2.75;;
15299;SDS011;7751;49.954;8.644;2022-09-25T08:02:58;1.75;;;1.75;;
15299;SDS011;7751;49.954;8.644;2022-09-25T08:05:24;2.85;;;2.65;;
15299;SDS011;7751;49.954;8.644;2022-09-25T08:07:51;4.05;;;3.78;;
15299;SDS011;7751;49.954;8.644;2022-09-25T08:10:19;3.20;;;2.97;;
15299;SDS011;7751;49.954;8.644;2022-09-25T08:12:50;2.78;;;2.67;;
15299;SDS011;7751;49.954;8.644;2022-09-25T08:15:16;4.78;;;4.15;;
15299;SDS011;7751;49.954;8.644;2022-09-25T08:17:43;3.08;;;2.80;;
15299;SDS011;7751;49.954;8.644;2022-09-25T08:20:10;1.80;;;1.80;;
15299;SDS011;7751;49.954;8.644;2022-09-25T08:22:36;2.70;;;2.50;;
15299;SDS011;7751;49.954;8.644;2022-09-25T08:25:02;3.05;;;2.95;;
15299;SDS011;7751;49.954;8.644;2022-09-25T08:27:29;3.15;;;2.90;;
15299;SDS011;7751;49.954;8.644;2022-09-25T08:29:55;3.60;;;3.40;;
15299;SDS011;7751;49.954;8.644;2022-09-25T08:32:22;3.47;;;3.28;;
15299;SDS011;7751;49.954;8.644;2022-09-25T08:34:49;2.00;;;2.00;;
15299;SDS011;7751;49.954;8.644;2022-09-25T08:37:15;2.55;;;2.45;;
15299;SDS011;7751;49.954;8.644;2022-09-25T08:39:44;3.67;;;3.47;;
15299;SDS011;7751;49.954;8.644;2022-09-25T08:42:16;3.60;;;2.90;;
15299;SDS011;7751;49.954;8.644;2022-09-25T08:44:46;4.82;;;4.38;;
15299;SDS011;7751;49.954;8.644;2022-09-25T08:47:34;7.05;;;4.70;;
15299;SDS011;7751;49.954;8.644;2022-09-25T08:50:23;2.03;;;1.98;;
15299;SDS011;7751;49.954;8.644;2022-09-25T08:52:51;4.47;;;4.05;;
15299;SDS011;7751;49.954;8.644;2022-09-25T08:55:29;2.22;;;2.22;;
15299;SDS011;7751;49.954;8.644;2022-09-25T08:58:24;2.78;;;2.67;;
15299;SDS011;7751;49.954;8.644;2022-09-25T09:00:52;3.10;;;2.92;;
15299;SDS011;7751;49.954;8.644;2022-09-25T09:03:19;1.95;;;1.85;;
15299;SDS011;7751;49.954;8.644;2022-09-25T09:05:48;3.88;;;3.55;;
15299;SDS011;7751;49.954;8.644;2022-09-25T09:08:17;5.18;;;4.95;;
15299;SDS011;7751;49.954;8.644;2022-09-25T09:11:07;1.95;;;1.88;;
15299;SDS011;7751;49.954;8.644;2022-09-25T09:16:12;2.85;;;2.22;;
15299;SDS011;7751;49.954;8.644;2022-09-25T09:18:40;2.75;;;2.20;;
15299;SDS011;7751;49.954;8.644;2022-09-25T09:31:43;2.70;;;2.60;;
15299;SDS011;7751;49.954;8.644;2022-09-25T09:42:08;2.53;;;2.42;;
15299;SDS011;7751;49.954;8.644;2022-09-25T09:44:45;2.58;;;2.42;;
15299;SDS011;7751;49.954;8.644;2022-09-25T09:47:28;2.08;;;1.83;;
15299;SDS011;7751;49.954;8.644;2022-09-25T09:52:41;1.45;;;1.45;;
15299;SDS011;7751;49.954;8.644;2022-09-25T09:55:34;6.97;;;4.53;;
15299;SDS011;7751;49.954;8.644;2022-09-25T09:58:03;1.20;;;1.20;;
15299;SDS011;7751;49.954;8.644;2022-09-25T10:00:41;1.60;;;1.60;;
15299;SDS011;7751;49.954;8.644;2022-09-25T10:05:40;2.28;;;2.17;;
15299;SDS011;7751;49.954;8.644;2022-09-25T10:08:10;2.63;;;2.53;;
15299;SDS011;7751;49.954;8.644;2022-09-25T10:10:37;1.73;;;1.70;;
15299;SDS011;7751;49.954;8.644;2022-09-25T10:13:05;2.25;;;2.13;;
15299;SDS011;7751;49.954;8.644;2022-09-25T10:15:42;4.82;;;4.25;;
15299;SDS011;7751;49.954;8.644;2022-09-25T10:18:14;2.28;;;2.13;;
15299;SDS011;7751;49.954;8.644;2022-09-25T10:20:41;1.77;;;1.77;;
15299;SDS011;7751;49.954;8.644;2022-09-25T10:23:51;2.25;;;2.15;;
15299;SDS011;7751;49.954;8.644;2022-09-25T10:25:58;4.10;;;3.92;;
15299;SDS011;7751;49.954;8.644;2022-09-25T10:28:27;1.55;;;1.55;;
15299;SDS011;7751;49.954;8.644;2022-09-25T10:30:53;1.80;;;1.70;;
15299;SDS011;7751;49.954;8.644;2022-09-25T10:33:26;2.92;;;2.72;;
15299;SDS011;7751;49.954;8.644;2022-09-25T10:35:52;1.92;;;1.83;;
15299;SDS011;7751;49.954;8.644;2022-09-25T10:38:33;2.08;;;1.48;;
15299;SDS011;7751;49.954;8.644;2022-09-25T10:41:02;1.33;;;1.33;;
15299;SDS011;7751;49.954;8.644;2022-09-25T10:43:29;2.75;;;2.55;;
15299;SDS011;7751;49.954;8.644;2022-09-25T10:46:10;3.03;;;2.92;;
15299;SDS011;7751;49.954;8.644;2022-09-25T10:48:37;6.85;;;2.53;;
15299;SDS011;7751;49.954;8.644;2022-09-25T10:51:22;1.98;;;1.88;;
15299;SDS011;7751;49.954;8.644;2022-09-25T10:53:50;1.98;;;1.88;;
15299;SDS011;7751;49.954;8.644;2022-09-25T10:56:18;2.28;;;2.20;;
15299;SDS011;7751;49.954;8.644;2022-09-25T10:58:46;1.92;;;1.83;;
15299;SDS011;7751;49.954;8.644;2022-09-25T11:01:14;1.45;;;1.45;;
15299;SDS011;7751;49.954;8.644;2022-09-25T11:03:51;2.55;;;2.53;;
15299;SDS011;7751;49.954;8.644;2022-09-25T11:06:25;3.47;;;3.28;;
15299;SDS011;7751;49.954;8.644;2022-09-25T11:09:01;1.65;;;1.65;;
15299;SDS011;7751;49.954;8.644;2022-09-25T11:11:29;2.75;;;2.65;;
15299;SDS011;7751;49.954;8.644;2022-09-25T11:13:59;2.92;;;2.67;;
15299;SDS011;7751;49.954;8.644;2022-09-25T11:16:40;3.72;;;3.55;;
15299;SDS011;7751;49.954;8.644;2022-09-25T11:19:32;3.85;;;3.58;;
15299;SDS011;7751;49.954;8.644;2022-09-25T11:22:10;1.70;;;1.65;;
15299;SDS011;7751;49.954;8.644;2022-09-25T11:24:49;3.22;;;2.92;;
15299;SDS011;7751;49.954;8.644;2022-09-25T11:27:25;9.70;;;3.08;;
15299;SDS011;7751;49.954;8.644;2022-09-25T11:43:05;1.73;;;1.67;;
15299;SDS011;7751;49.954;8.644;2022-09-25T11:45:34;2.08;;;1.67;;
15299;SDS011;7751;49.954;8.644;2022-09-25T11:56:50;1.52;;;1.52;;
15299;SDS011;7751;49.954;8.644;2022-09-25T12:04:51;0.90;;;0.90;;
15299;SDS011;7751;49.954;8.644;2022-09-25T12:07:42;0.95;;;0.95;;
15299;SDS011;7751;49.954;8.644;2022-09-25T12:10:44;0.75;;;0.75;;
15299;SDS011;7751;49.954;8.644;2022-09-25T12:13:17;2.05;;;2.05;;
15299;SDS011;7751;49.954;8.644;2022-09-25T12:40:04;0.70;;;0.70;;
15299;SDS011;7751;49.954;8.644;2022-09-25T12:42:12;17.33;;;1.67;;
15299;SDS011;7751;49.954;8.644;2022-09-25T12:44:50;0.90;;;0.90;;
15299;SDS011;7751;49.954;8.644;2022-09-25T12:49:54;1.10;;;1.10;;
15299;SDS011;7751;49.954;8.644;2022-09-25T12:52:29;0.70;;;0.70;;
15299;SDS011;7751;49.954;8.644;2022-09-25T12:54:59;0.60;;;0.60;;
15299;SDS011;7751;49.954;8.644;2022-09-25T12:57:38;1.10;;;1.10;;
15299;SDS011;7751;49.954;8.644;2022-09-25T13:00:22;0.93;;;0.93;;
15299;SDS011;7751;49.954;8.644;2022-09-25T13:02:54;0.88;;;0.88;;
15299;SDS011;7751;49.954;8.644;2022-09-25T13:05:28;0.70;;;0.70;;
15299;SDS011;7751;49.954;8.644;2022-09-25T13:07:58;0.80;;;0.80;;
15299;SDS011;7751;49.954;8.644;2022-09-25T13:13:01;0.57;;;0.57;;
15299;SDS011;7751;49.954;8.644;2022-09-25T13:15:32;1.55;;;1.55;;
15299;SDS011;7751;49.954;8.644;2022-09-25T13:18:02;0.77;;;0.77;;
15299;SDS011;7751;49.954;8.644;2022-09-25T13:25:28;0.52;;;0.52;;
15299;SDS011;7751;49.954;8.644;2022-09-25T13:27:55;2.55;;;1.13;;
15299;SDS011;7751;49.954;8.644;2022-09-25T13:30:26;0.73;;;0.73;;
15299;SDS011;7751;49.954;8.644;2022-09-25T13:32:54;0.70;;;0.70;;
15299;SDS011;7751;49.954;8.644;2022-09-25T13:35:22;1.27;;;1.25;;
15299;SDS011;7751;49.954;8.644;2022-09-25T13:37:49;0.50;;;0.50;;
15299;SDS011;7751;49.954;8.644;2022-09-25T13:40:16;0.50;;;0.50;;
15299;SDS011;7751;49.954;8.644;2022-09-25T13:45:48;1.55;;;0.98;;
15299;SDS011;7751;49.954;8.644;2022-09-25T13:48:34;2.03;;;1.92;;
15299;SDS011;7751;49.954;8.644;2022-09-25T13:56:21;0.63;;;0.63;;
15299;SDS011;7751;49.954;8.644;2022-09-25T14:01:53;0.82;;;0.82;;
15299;SDS011;7751;49.954;8.644;2022-09-25T14:04:22;1.33;;;1.33;;
15299;SDS011;7751;49.954;8.644;2022-09-25T14:06:52;1.05;;;1.05;;
15299;SDS011;7751;49.954;8.644;2022-09-25T14:09:23;0.55;;;0.55;;
15299;SDS011;7751;49.954;8.644;2022-09-25T14:11:58;0.80;;;0.80;;
15299;SDS011;7751;49.954;8.644;2022-09-25T14:14:49;0.63;;;0.63;;
15299;SDS011;7751;49.954;8.644;2022-09-25T14:17:17;0.43;;;0.43;;
15299;SDS011;7751;49.954;8.644;2022-09-25T14:19:46;0.65;;;0.65;;
15299;SDS011;7751;49.954;8.644;2022-09-25T14:22:37;1.00;;;1.00;;
15299;SDS011;7751;49.954;8.644;2022-09-25T14:30:50;1.77;;;1.67;;
15299;SDS011;7751;49.954;8.644;2022-09-25T14:33:34;1.20;;;1.20;;
15299;SDS011;7751;49.954;8.644;2022-09-25T14:36:14;0.50;;;0.50;;
15299;SDS011;7751;49.954;8.644;2022-09-25T14:38:47;0.70;;;0.70;;
15299;SDS011;7751;49.954;8.644;2022-09-25T14:46:39;1.30;;;1.30;;
15299;SDS011;7751;49.954;8.644;2022-09-25T14:49:10;1.08;;;1.05;;
15299;SDS011;7751;49.954;8.644;2022-09-25T14:51:39;0.63;;;0.63;;
15299;SDS011;7751;49.954;8.644;2022-09-25T14:54:08;1.67;;;1.45;;
15299;SDS011;7751;49.954;8.644;2022-09-25T14:56:36;0.60;;;0.60;;
15299;SDS011;7751;49.954;8.644;2022-09-25T14:59:09;0.30;;;0.30;;
15299;SDS011;7751;49.954;8.644;2022-09-25T15:01:43;1.30;;;1.30;;
15299;SDS011;7751;49.954;8.644;2022-09-25T15:04:10;0.90;;;0.90;;
15299;SDS011;7751;49.954;8.644;2022-09-25T15:06:37;1.15;;;1.15;;
15299;SDS011;7751;49.954;8.644;2022-09-25T15:09:18;0.93;;;0.93;;
15299;SDS011;7751;49.954;8.644;2022-09-25T15:11:52;3.38;;;1.95;;
15299;SDS011;7751;49.954;8.644;2022-09-25T15:14:19;1.30;;;1.30;;
15299;SDS011;7751;49.954;8.644;2022-09-25T15:16:45;0.60;;;0.60;;
15299;SDS011;7751;49.954;8.644;2022-09-25T15:19:31;0.70;;;0.70;;
15299;SDS011;7751;49.954;8.644;2022-09-25T15:21:58;0.85;;;0.85;;
15299;SDS011;7751;49.954;8.644;2022-09-25T15:24:26;0.40;;;0.40;;
15299;SDS011;7751;49.954;8.644;2022-09-25T15:26:54;0.70;;;0.70;;
15299;SDS011;7751;49.954;8.644;2022-09-25T15:29:26;0.57;;;0.57;;
15299;SDS011;7751;49.954;8.644;2022-09-25T15:31:53;0.93;;;0.93;;
15299;SDS011;7751;49.954;8.644;2022-09-25T15:34:26;1.25;;;1.25;;
15299;SDS011;7751;49.954;8.644;2022-09-25T15:37:15;0.80;;;0.80;;
15299;SDS011;7751;49.954;8.644;2022-09-25T15:39:42;0.45;;;0.45;;
15299;SDS011;7751;49.954;8.644;2022-09-25T15:42:11;0.68;;;0.68;;
15299;SDS011;7751;49.954;8.644;2022-09-25T15:44:37;0.50;;;0.50;;
15299;SDS011;7751;49.954;8.644;2022-09-25T15:47:03;1.08;;;1.08;;
15299;SDS011;7751;49.954;8.644;2022-09-25T15:49:34;1.02;;;1.02;;
15299;SDS011;7751;49.954;8.644;2022-09-25T15:52:05;0.75;;;0.75;;
15299;SDS011;7751;49.954;8.644;2022-09-25T15:54:33;1.05;;;1.05;;
15299;SDS011;7751;49.954;8.644;2022-09-25T15:57:02;0.30;;;0.30;;
15299;SDS011;7751;49.954;8.644;2022-09-25T15:59:43;0.47;;;0.47;;
15299;SDS011;7751;49.954;8.644;2022-09-25T16:02:29;0.63;;;0.63;;
15299;SDS011;7751;49.954;8.644;2022-09-25T16:05:15;0.65;;;0.65;;
15299;SDS011;7751;49.954;8.644;2022-09-25T16:07:44;1.00;;;1.00;;
15299;SDS011;7751;49.954;8.644;2022-09-25T16:10:27;0.40;;;0.40;;
15299;SDS011;7751;49.954;8.644;2022-09-25T16:12:53;0.98;;;0.98;;
15299;SDS011;7751;49.954;8.644;2022-09-25T16:17:52;0.50;;;0.50;;
15299;SDS011;7751;49.954;8.644;2022-09-25T16:22:48;0.60;;;0.60;;
15299;SDS011;7751;49.954;8.644;2022-09-25T16:25:30;0.50;;;0.50;;
15299;SDS011;7751;49.954;8.644;2022-09-25T16:28:08;0.50;;;0.50;;
15299;SDS011;7751;49.954;8.644;2022-09-25T16:30:39;0.75;;;0.75;;
15299;SDS011;7751;49.954;8.644;2022-09-25T16:33:30;0.98;;;0.98;;
15299;SDS011;7751;49.954;8.644;2022-09-25T16:36:01;0.73;;;0.73;;
15299;SDS011;7751;49.954;8.644;2022-09-25T16:38:30;0.73;;;0.73;;
15299;SDS011;7751;49.954;8.644;2022-09-25T16:41:04;1.02;;;0.88;;
15299;SDS011;7751;49.954;8.644;2022-09-25T16:43:30;0.60;;;0.60;;
15299;SDS011;7751;49.954;8.644;2022-09-25T16:46:02;1.02;;;1.02;;
15299;SDS011;7751;49.954;8.644;2022-09-25T16:48:35;0.60;;;0.60;;
15299;SDS011;7751;49.954;8.644;2022-09-25T16:51:08;0.57;;;0.57;;
15299;SDS011;7751;49.954;8.644;2022-09-25T16:53:36;1.75;;;0.80;;
15299;SDS011;7751;49.954;8.644;2022-09-25T16:56:04;0.68;;;0.68;;
15299;SDS011;7751;49.954;8.644;2022-09-25T16:58:30;0.65;;;0.65;;
15299;SDS011;7751;49.954;8.644;2022-09-25T17:00:56;2.92;;;1.50;;
15299;SDS011;7751;49.954;8.644;2022-09-25T17:03:28;0.75;;;0.75;;
15299;SDS011;7751;49.954;8.644;2022-09-25T17:06:14;0.90;;;0.90;;
15299;SDS011;7751;49.954;8.644;2022-09-25T17:08:40;0.95;;;0.95;;
15299;SDS011;7751;49.954;8.644;2022-09-25T17:11:07;0.90;;;0.90;;
15299;SDS011;7751;49.954;8.644;2022-09-25T17:13:33;1.15;;;1.15;;
15299;SDS011;7751;49.954;8.644;2022-09-25T17:15:59;0.85;;;0.85;;
15299;SDS011;7751;49.954;8.644;2022-09-25T17:18:26;0.60;;;0.60;;
15299;SDS011;7751;49.954;8.644;2022-09-25T17:20:52;1.70;;;1.70;;
15299;SDS011;7751;49.954;8.644;2022-09-25T17:23:19;0.88;;;0.88;;
15299;SDS011;7751;49.954;8.644;2022-09-25T17:25:47;0.98;;;0.98;;
15299;SDS011;7751;49.954;8.644;2022-09-25T17:28:13;1.05;;;1.05;;
15299;SDS011;7751;49.954;8.644;2022-09-25T17:30:41;0.85;;;0.85;;
15299;SDS011;7751;49.954;8.644;2022-09-25T17:33:12;1.02;;;1.02;;